KFCM/FCM METAR and TAF weather

Enter ICAO airport designator
Station Type Date Time Source
KFCM METAR 2019/06/27 03:53 UTC NOAA

KFCM 270353Z 12007KT 10SM CLR 23/14 A3003 RMK AO2 SLP165 T02330139


Station Type Date Time Source
KFCM Decoded METAR 2019/06/27 03:53 UTC NOAA

Minneapolis, Flying Cloud Airport, MN, United States (KFCM) 44-49-56N 093-28-13W 280M
Jun 26, 2019 - 11:53 PM EDT / 2019.06.27 0353 UTC
Wind: from the ESE (120 degrees) at 8 MPH (7 KT):0
Visibility: 10 mile(s):0
Sky conditions: clear
Temperature: 73.9 F (23.3 C)
Dew Point: 57.0 F (13.9 C)
Relative Humidity: 55%
Pressure (altimeter): 30.03 in. Hg (1016 hPa)
ob: KFCM 270353Z 12007KT 10SM CLR 23/14 A3003 RMK AO2 SLP165 T02330139
cycle: 4

Station Type Date Time Source
KFCM TAF 2018/02/05 20:59 UTC NOAA

TAF
AMD KFCM 051959Z 0520/0618 27007KT 6SM -SHSN BKN020 OVC050
TEMPO 0520/0522 SCT020 BKN050
FM052200 27007KT P6SM FEW020 BKN100
FM060100 31007KT P6SM FEW200
FM061000 VRB03KT P6SM FEW250
AMD NOT SKED

Example: see airport list